Bugra Tomba — TCEJ — position and weather

sailwx.info

Track history (hours):
 
Tides and Currents Weather Stations Pressure Air Temp Water Temp Dewpoint Dewpoint Depression Visibility Wind Speed Wind Dir Waves Ship Positions

Bugra Tomba

Last reported at 2016-Jan-26 16:06 UTC. Time now 2016-Feb-07 05:46 UTC.
Position N 40°53' E 029°11'.
Warning: this ship's position is 11 days out of date.

Length 99 m; draft 3.6 m.

Type: Cargo ship. MMSI: 271000025.

Date/timePositionNaut miles runAvg speedWind from/ knotsBaromVisibWave heightAir tempDewpointWater temp
2016-Jan-26 16:06N 40°53' E 029°11'0 0.0
2016-Jan-26 15:30N 40°53' E 029°11'0 0.0
2016-Jan-26 14:30N 40°53' E 029°11'0 0.0
2016-Jan-26 13:18N 40°53' E 029°11'0 0.0
2016-Jan-26 12:30N 40°53' E 029°11'0 0.0
2016-Jan-26 10:06N 40°53' E 029°11'0 0.0
2016-Jan-26 09:30N 40°53' E 029°11'0 0.1
2016-Jan-26 08:24N 40°53' E 029°11'0 0.0
2016-Jan-26 07:18N 40°53' E 029°11'0 0.1
2016-Jan-26 06:30N 40°53' E 029°11'0 0.0
2016-Jan-26 05:30N 40°53' E 029°11'0 0.0
2016-Jan-26 04:30N 40°53' E 029°11'0 0.0
2016-Jan-26 03:30N 40°53' E 029°11'0 0.0
2016-Jan-26 02:06N 40°53' E 029°11'0 0.0
2016-Jan-26 00:30N 40°53' E 029°11'0 0.0
2016-Jan-25 23:18N 40°53' E 029°11'0 0.0
2016-Jan-25 22:33N 40°53' E 029°11'0 0.0
2016-Jan-25 20:33N 40°53' E 029°11'0 0.1
2016-Jan-25 19:21N 40°52' E 029°11'0 0.0
2016-Jan-25 18:21N 40°52' E 029°11'0 0.0
2016-Jan-25 17:09N 40°52' E 029°11'0 0.0
2016-Jan-25 16:27N 40°52' E 029°11'0 0.0
2016-Jan-25 12:21N 40°52' E 029°11'0 0.0
2016-Jan-25 11:33N 40°52' E 029°11'0 0.0
2016-Jan-25 06:21N 40°52' E 029°11'0 0.0
2016-Jan-25 04:15N 40°52' E 029°11'0 0.0
2016-Jan-24 23:21N 40°52' E 029°11'0 0.0
2016-Jan-24 20:27N 40°52' E 029°11'0 0.0
2016-Jan-24 19:15N 40°52' E 029°11'0 0.0
2016-Jan-24 11:33N 40°52' E 029°11'0 0.0
2016-Jan-24 09:27N 40°52' E 029°11'0 0.0
2016-Jan-24 07:33N 40°52' E 029°11'0 0.0
2016-Jan-24 03:27N 40°52' E 029°11'0 0.0
2016-Jan-24 02:03N 40°52' E 029°11'0 0.1
2016-Jan-24 01:03N 40°52' E 029°11'0 0.1
2016-Jan-24 00:33N 40°52' E 029°11'0 0.0
2016-Jan-23 23:27N 40°52' E 029°11'0 0.0
2016-Jan-23 21:21N 40°52' E 029°11'0 0.0
2016-Jan-23 20:33N 40°52' E 029°11'0 0.0
2016-Jan-23 19:15N 40°52' E 029°11'0 0.0
2016-Jan-23 18:27N 40°52' E 029°11'0 0.0
2016-Jan-23 17:21N 40°52' E 029°11'0 0.1
2016-Jan-23 16:33N 40°52' E 029°11'0 0.0
2016-Jan-23 14:27N 40°52' E 029°11'0 0.0
2016-Jan-23 13:09N 40°52' E 029°11'0 0.0
2016-Jan-23 11:21N 40°52' E 029°11'1 1.1
2016-Jan-23 10:09N 40°51' E 029°11'0 0.0
2016-Jan-23 09:27N 40°51' E 029°11'0 0.0
2016-Jan-23 07:33N 40°51' E 029°11'0 0.0
2016-Jan-23 06:33N 40°51' E 029°11'0 0.0
2016-Jan-23 05:27N 40°51' E 029°11'0 0.0
2016-Jan-23 03:33N 40°51' E 029°11'7 7.1
2016-Jan-23 02:34N 40°46' E 029°17'10 9.7
2016-Jan-23 01:31N 40°45' E 029°31'4 0.3
2016-Jan-22 14:23N 40°46' E 029°36'7 7.5
2016-Jan-22 13:29N 40°45' E 029°27'8 8.7
2016-Jan-22 12:33N 40°44' E 029°16'  
Track history (hours):
 
Tides and Currents Weather Stations Pressure Air Temp Water Temp Dewpoint Dewpoint Depression Visibility Wind Speed Wind Dir Waves Ship Positions

Bugra Tomba

Last reported at 2016-Jan-26 16:06 UTC. Time now 2016-Feb-07 05:46 UTC.
Position N 40°53' E 029°11'.
Warning: this ship's position is 11 days out of date.

Length 99 m; draft 3.6 m.

Type: Cargo ship. MMSI: 271000025.

Date/timePositionNaut miles runAvg speedWind from/ knotsBaromVisibWave heightAir tempDewpointWater temp
2016-Jan-26 16:06N 40°53' E 029°11'0 0.0
2016-Jan-26 15:30N 40°53' E 029°11'0 0.0
2016-Jan-26 14:30N 40°53' E 029°11'0 0.0
2016-Jan-26 13:18N 40°53' E 029°11'0 0.0
2016-Jan-26 12:30N 40°53' E 029°11'0 0.0
2016-Jan-26 10:06N 40°53' E 029°11'0 0.0
2016-Jan-26 09:30N 40°53' E 029°11'0 0.1
2016-Jan-26 08:24N 40°53' E 029°11'0 0.0
2016-Jan-26 07:18N 40°53' E 029°11'0 0.1
2016-Jan-26 06:30N 40°53' E 029°11'0 0.0
2016-Jan-26 05:30N 40°53' E 029°11'0 0.0
2016-Jan-26 04:30N 40°53' E 029°11'0 0.0
2016-Jan-26 03:30N 40°53' E 029°11'0 0.0
2016-Jan-26 02:06N 40°53' E 029°11'0 0.0
2016-Jan-26 00:30N 40°53' E 029°11'0 0.0
2016-Jan-25 23:18N 40°53' E 029°11'0 0.0
2016-Jan-25 22:33N 40°53' E 029°11'0 0.0
2016-Jan-25 20:33N 40°53' E 029°11'0 0.1
2016-Jan-25 19:21N 40°52' E 029°11'0 0.0
2016-Jan-25 18:21N 40°52' E 029°11'0 0.0
2016-Jan-25 17:09N 40°52' E 029°11'0 0.0
2016-Jan-25 16:27N 40°52' E 029°11'0 0.0
2016-Jan-25 12:21N 40°52' E 029°11'0 0.0
2016-Jan-25 11:33N 40°52' E 029°11'0 0.0
2016-Jan-25 06:21N 40°52' E 029°11'0 0.0
2016-Jan-25 04:15N 40°52' E 029°11'0 0.0
2016-Jan-24 23:21N 40°52' E 029°11'0 0.0
2016-Jan-24 20:27N 40°52' E 029°11'0 0.0
2016-Jan-24 19:15N 40°52' E 029°11'0 0.0
2016-Jan-24 11:33N 40°52' E 029°11'0 0.0
2016-Jan-24 09:27N 40°52' E 029°11'0 0.0
2016-Jan-24 07:33N 40°52' E 029°11'0 0.0
2016-Jan-24 03:27N 40°52' E 029°11'0 0.0
2016-Jan-24 02:03N 40°52' E 029°11'0 0.1
2016-Jan-24 01:03N 40°52' E 029°11'0 0.1
2016-Jan-24 00:33N 40°52' E 029°11'0 0.0
2016-Jan-23 23:27N 40°52' E 029°11'0 0.0
2016-Jan-23 21:21N 40°52' E 029°11'0 0.0
2016-Jan-23 20:33N 40°52' E 029°11'0 0.0
2016-Jan-23 19:15N 40°52' E 029°11'0 0.0
2016-Jan-23 18:27N 40°52' E 029°11'0 0.0
2016-Jan-23 17:21N 40°52' E 029°11'0 0.1
2016-Jan-23 16:33N 40°52' E 029°11'0 0.0
2016-Jan-23 14:27N 40°52' E 029°11'0 0.0
2016-Jan-23 13:09N 40°52' E 029°11'0 0.0
2016-Jan-23 11:21N 40°52' E 029°11'1 1.1
2016-Jan-23 10:09N 40°51' E 029°11'0 0.0
2016-Jan-23 09:27N 40°51' E 029°11'0 0.0
2016-Jan-23 07:33N 40°51' E 029°11'0 0.0
2016-Jan-23 06:33N 40°51' E 029°11'0 0.0
2016-Jan-23 05:27N 40°51' E 029°11'0 0.0
2016-Jan-23 03:33N 40°51' E 029°11'7 7.1
2016-Jan-23 02:34N 40°46' E 029°17'10 9.7
2016-Jan-23 01:31N 40°45' E 029°31'4 0.3
2016-Jan-22 14:23N 40°46' E 029°36'7 7.5
2016-Jan-22 13:29N 40°45' E 029°27'8 8.7
2016-Jan-22 12:33N 40°44' E 029°16'  

Dump ship's entire track history